sensor_id;sensor_type;location;lat;lon;timestamp;P1;durP1;ratioP1;P2;durP2;ratioP2
36829;SDS011;22767;47.328;9.640;2022-11-15T00:01:47;1.17;;;0.90;;
36829;SDS011;22767;47.328;9.640;2022-11-15T00:04:13;2.55;;;0.73;;
36829;SDS011;22767;47.328;9.640;2022-11-15T00:06:39;2.50;;;1.13;;
36829;SDS011;22767;47.328;9.640;2022-11-15T00:09:06;2.20;;;0.90;;
36829;SDS011;22767;47.328;9.640;2022-11-15T00:11:32;1.08;;;0.65;;
36829;SDS011;22767;47.328;9.640;2022-11-15T00:13:58;1.45;;;1.00;;
36829;SDS011;22767;47.328;9.640;2022-11-15T00:16:27;2.03;;;1.10;;
36829;SDS011;22767;47.328;9.640;2022-11-15T00:18:53;1.77;;;1.27;;
36829;SDS011;22767;47.328;9.640;2022-11-15T00:21:20;1.80;;;1.30;;
36829;SDS011;22767;47.328;9.640;2022-11-15T00:23:46;2.25;;;1.50;;
36829;SDS011;22767;47.328;9.640;2022-11-15T00:26:13;2.72;;;1.48;;
36829;SDS011;22767;47.328;9.640;2022-11-15T00:28:39;3.92;;;1.90;;
36829;SDS011;22767;47.328;9.640;2022-11-15T00:31:13;2.22;;;1.60;;
36829;SDS011;22767;47.328;9.640;2022-11-15T00:33:42;3.30;;;2.28;;
36829;SDS011;22767;47.328;9.640;2022-11-15T00:36:08;3.83;;;2.35;;
36829;SDS011;22767;47.328;9.640;2022-11-15T00:38:36;6.25;;;2.75;;
36829;SDS011;22767;47.328;9.640;2022-11-15T00:41:03;4.43;;;2.38;;
36829;SDS011;22767;47.328;9.640;2022-11-15T00:43:29;5.13;;;2.53;;
36829;SDS011;22767;47.328;9.640;2022-11-15T00:45:56;5.25;;;2.97;;
36829;SDS011;22767;47.328;9.640;2022-11-15T00:48:22;4.45;;;3.08;;
36829;SDS011;22767;47.328;9.640;2022-11-15T00:50:48;5.82;;;3.53;;
36829;SDS011;22767;47.328;9.640;2022-11-15T00:53:15;3.75;;;3.03;;
36829;SDS011;22767;47.328;9.640;2022-11-15T00:55:42;3.83;;;2.90;;
36829;SDS011;22767;47.328;9.640;2022-11-15T00:58:08;7.28;;;3.30;;
36829;SDS011;22767;47.328;9.640;2022-11-15T01:00:34;5.65;;;3.05;;
36829;SDS011;22767;47.328;9.640;2022-11-15T01:03:00;6.82;;;3.67;;
36829;SDS011;22767;47.328;9.640;2022-11-15T01:05:27;5.05;;;3.35;;
36829;SDS011;22767;47.328;9.640;2022-11-15T01:07:53;5.55;;;3.53;;
36829;SDS011;22767;47.328;9.640;2022-11-15T01:10:19;5.90;;;3.88;;
36829;SDS011;22767;47.328;9.640;2022-11-15T01:12:46;5.40;;;3.53;;
36829;SDS011;22767;47.328;9.640;2022-11-15T01:15:12;6.60;;;3.60;;
36829;SDS011;22767;47.328;9.640;2022-11-15T01:17:38;6.72;;;3.70;;
36829;SDS011;22767;47.328;9.640;2022-11-15T01:20:04;5.18;;;3.30;;
36829;SDS011;22767;47.328;9.640;2022-11-15T01:22:31;6.70;;;3.40;;
36829;SDS011;22767;47.328;9.640;2022-11-15T01:24:57;6.18;;;3.10;;
36829;SDS011;22767;47.328;9.640;2022-11-15T01:27:23;5.13;;;3.17;;
36829;SDS011;22767;47.328;9.640;2022-11-15T01:29:49;4.20;;;3.00;;
36829;SDS011;22767;47.328;9.640;2022-11-15T01:32:15;4.65;;;3.05;;
36829;SDS011;22767;47.328;9.640;2022-11-15T01:34:41;4.90;;;3.05;;
36829;SDS011;22767;47.328;9.640;2022-11-15T01:37:08;4.53;;;2.97;;
36829;SDS011;22767;47.328;9.640;2022-11-15T01:39:34;4.10;;;2.67;;
36829;SDS011;22767;47.328;9.640;2022-11-15T01:42:00;4.45;;;2.95;;
36829;SDS011;22767;47.328;9.640;2022-11-15T01:44:43;5.45;;;2.97;;
36829;SDS011;22767;47.328;9.640;2022-11-15T01:47:19;3.90;;;2.53;;
36829;SDS011;22767;47.328;9.640;2022-11-15T01:52:19;3.95;;;2.60;;
36829;SDS011;22767;47.328;9.640;2022-11-15T01:54:46;5.47;;;2.33;;
36829;SDS011;22767;47.328;9.640;2022-11-15T01:57:12;3.13;;;2.60;;
36829;SDS011;22767;47.328;9.640;2022-11-15T01:59:43;2.92;;;2.03;;
36829;SDS011;22767;47.328;9.640;2022-11-15T02:02:10;3.35;;;1.80;;
36829;SDS011;22767;47.328;9.640;2022-11-15T02:04:43;2.42;;;1.77;;
36829;SDS011;22767;47.328;9.640;2022-11-15T02:07:10;2.90;;;1.88;;
36829;SDS011;22767;47.328;9.640;2022-11-15T02:09:37;4.25;;;1.90;;
36829;SDS011;22767;47.328;9.640;2022-11-15T02:12:04;3.58;;;1.70;;
36829;SDS011;22767;47.328;9.640;2022-11-15T02:14:31;2.30;;;1.35;;
36829;SDS011;22767;47.328;9.640;2022-11-15T02:29:42;2.75;;;1.60;;
36829;SDS011;22767;47.328;9.640;2022-11-15T02:32:57;3.97;;;1.10;;
36829;SDS011;22767;47.328;9.640;2022-11-15T02:35:16;1.20;;;1.10;;
36829;SDS011;22767;47.328;9.640;2022-11-15T02:40:12;3.08;;;1.40;;
36829;SDS011;22767;47.328;9.640;2022-11-15T02:42:45;1.65;;;1.00;;
36829;SDS011;22767;47.328;9.640;2022-11-15T02:45:47;2.50;;;1.02;;
36829;SDS011;22767;47.328;9.640;2022-11-15T02:48:14;1.25;;;1.10;;
36829;SDS011;22767;47.328;9.640;2022-11-15T02:50:41;2.00;;;1.10;;
36829;SDS011;22767;47.328;9.640;2022-11-15T02:53:08;1.77;;;1.15;;
36829;SDS011;22767;47.328;9.640;2022-11-15T02:55:35;1.63;;;1.10;;
36829;SDS011;22767;47.328;9.640;2022-11-15T03:00:35;1.38;;;1.23;;
36829;SDS011;22767;47.328;9.640;2022-11-15T03:03:20;4.28;;;1.58;;
36829;SDS011;22767;47.328;9.640;2022-11-15T03:08:36;2.15;;;1.40;;
36829;SDS011;22767;47.328;9.640;2022-11-15T03:13:36;1.65;;;1.30;;
36829;SDS011;22767;47.328;9.640;2022-11-15T03:18:32;1.45;;;1.10;;
36829;SDS011;22767;47.328;9.640;2022-11-15T03:20:59;1.70;;;1.30;;
36829;SDS011;22767;47.328;9.640;2022-11-15T03:23:26;1.30;;;1.20;;
36829;SDS011;22767;47.328;9.640;2022-11-15T03:25:54;3.17;;;1.50;;
36829;SDS011;22767;47.328;9.640;2022-11-15T03:29:22;2.30;;;1.27;;
36829;SDS011;22767;47.328;9.640;2022-11-15T03:31:17;3.38;;;1.77;;
36829;SDS011;22767;47.328;9.640;2022-11-15T03:34:04;2.05;;;1.20;;
36829;SDS011;22767;47.328;9.640;2022-11-15T03:36:31;1.65;;;1.35;;
36829;SDS011;22767;47.328;9.640;2022-11-15T03:39:00;2.08;;;1.15;;
36829;SDS011;22767;47.328;9.640;2022-11-15T03:41:28;2.22;;;1.42;;
36829;SDS011;22767;47.328;9.640;2022-11-15T03:46:32;4.10;;;1.35;;
36829;SDS011;22767;47.328;9.640;2022-11-15T03:52:02;1.95;;;1.65;;
36829;SDS011;22767;47.328;9.640;2022-11-15T03:54:28;1.83;;;1.50;;
36829;SDS011;22767;47.328;9.640;2022-11-15T03:56:55;1.92;;;1.35;;
36829;SDS011;22767;47.328;9.640;2022-11-15T03:59:21;3.03;;;1.83;;
36829;SDS011;22767;47.328;9.640;2022-11-15T04:01:47;3.15;;;1.63;;
36829;SDS011;22767;47.328;9.640;2022-11-15T04:04:13;3.33;;;1.90;;
36829;SDS011;22767;47.328;9.640;2022-11-15T04:06:39;3.47;;;2.03;;
36829;SDS011;22767;47.328;9.640;2022-11-15T04:09:05;4.40;;;1.88;;
36829;SDS011;22767;47.328;9.640;2022-11-15T04:11:32;2.13;;;1.60;;
36829;SDS011;22767;47.328;9.640;2022-11-15T04:13:58;2.40;;;1.80;;
36829;SDS011;22767;47.328;9.640;2022-11-15T04:16:24;4.05;;;1.75;;
36829;SDS011;22767;47.328;9.640;2022-11-15T04:18:50;2.45;;;1.73;;
36829;SDS011;22767;47.328;9.640;2022-11-15T04:21:36;5.20;;;2.83;;
36829;SDS011;22767;47.328;9.640;2022-11-15T04:24:20;3.17;;;2.05;;
36829;SDS011;22767;47.328;9.640;2022-11-15T04:26:47;3.17;;;2.25;;
36829;SDS011;22767;47.328;9.640;2022-11-15T04:29:13;4.10;;;2.45;;
36829;SDS011;22767;47.328;9.640;2022-11-15T04:31:58;2.50;;;1.98;;
36829;SDS011;22767;47.328;9.640;2022-11-15T04:34:24;3.22;;;2.03;;
36829;SDS011;22767;47.328;9.640;2022-11-15T04:36:50;3.60;;;2.67;;
36829;SDS011;22767;47.328;9.640;2022-11-15T04:39:35;5.18;;;3.17;;
36829;SDS011;22767;47.328;9.640;2022-11-15T04:42:01;5.70;;;2.88;;
36829;SDS011;22767;47.328;9.640;2022-11-15T04:44:27;3.28;;;2.58;;
36829;SDS011;22767;47.328;9.640;2022-11-15T04:46:53;4.68;;;3.10;;
36829;SDS011;22767;47.328;9.640;2022-11-15T04:49:19;4.45;;;3.03;;
36829;SDS011;22767;47.328;9.640;2022-11-15T04:51:45;4.85;;;2.60;;
36829;SDS011;22767;47.328;9.640;2022-11-15T04:54:11;3.83;;;2.55;;
36829;SDS011;22767;47.328;9.640;2022-11-15T04:56:37;3.20;;;1.95;;
36829;SDS011;22767;47.328;9.640;2022-11-15T04:59:03;13.48;;;9.23;;
36829;SDS011;22767;47.328;9.640;2022-11-15T05:01:29;4.80;;;2.47;;
36829;SDS011;22767;47.328;9.640;2022-11-15T05:03:56;3.53;;;1.90;;
36829;SDS011;22767;47.328;9.640;2022-11-15T05:06:41;4.32;;;3.20;;
36829;SDS011;22767;47.328;9.640;2022-11-15T05:09:07;3.08;;;2.72;;
36829;SDS011;22767;47.328;9.640;2022-11-15T05:11:33;3.60;;;2.47;;
36829;SDS011;22767;47.328;9.640;2022-11-15T05:13:59;3.92;;;3.10;;
36829;SDS011;22767;47.328;9.640;2022-11-15T05:16:25;14.85;;;9.25;;
36829;SDS011;22767;47.328;9.640;2022-11-15T05:18:52;6.32;;;2.65;;
36829;SDS011;22767;47.328;9.640;2022-11-15T05:21:18;4.80;;;2.40;;
36829;SDS011;22767;47.328;9.640;2022-11-15T05:23:44;3.80;;;3.03;;
36829;SDS011;22767;47.328;9.640;2022-11-15T05:26:11;4.65;;;2.80;;
36829;SDS011;22767;47.328;9.640;2022-11-15T05:28:37;3.45;;;2.55;;
36829;SDS011;22767;47.328;9.640;2022-11-15T05:31:10;4.47;;;2.90;;
36829;SDS011;22767;47.328;9.640;2022-11-15T05:33:37;4.25;;;2.88;;
36829;SDS011;22767;47.328;9.640;2022-11-15T05:36:05;2.92;;;2.22;;
36829;SDS011;22767;47.328;9.640;2022-11-15T05:38:32;4.97;;;2.08;;
36829;SDS011;22767;47.328;9.640;2022-11-15T05:40:59;6.22;;;2.47;;
36829;SDS011;22767;47.328;9.640;2022-11-15T05:43:26;7.15;;;2.50;;
36829;SDS011;22767;47.328;9.640;2022-11-15T05:45:52;15.25;;;8.82;;
36829;SDS011;22767;47.328;9.640;2022-11-15T05:48:18;16.25;;;7.93;;
36829;SDS011;22767;47.328;9.640;2022-11-15T05:50:46;8.55;;;5.05;;
36829;SDS011;22767;47.328;9.640;2022-11-15T05:53:14;6.53;;;3.10;;
36829;SDS011;22767;47.328;9.640;2022-11-15T05:55:40;12.30;;;5.72;;
36829;SDS011;22767;47.328;9.640;2022-11-15T05:58:07;7.65;;;4.32;;
36829;SDS011;22767;47.328;9.640;2022-11-15T06:00:33;6.97;;;3.70;;
36829;SDS011;22767;47.328;9.640;2022-11-15T06:02:59;5.97;;;3.55;;
36829;SDS011;22767;47.328;9.640;2022-11-15T06:05:25;5.43;;;3.67;;
36829;SDS011;22767;47.328;9.640;2022-11-15T06:07:52;6.97;;;4.93;;
36829;SDS011;22767;47.328;9.640;2022-11-15T06:10:18;7.38;;;4.03;;
36829;SDS011;22767;47.328;9.640;2022-11-15T06:12:44;7.18;;;4.97;;
36829;SDS011;22767;47.328;9.640;2022-11-15T06:15:10;8.95;;;5.00;;
36829;SDS011;22767;47.328;9.640;2022-11-15T06:17:36;6.80;;;4.43;;
36829;SDS011;22767;47.328;9.640;2022-11-15T06:20:02;8.73;;;5.10;;
36829;SDS011;22767;47.328;9.640;2022-11-15T06:22:28;7.85;;;4.88;;
36829;SDS011;22767;47.328;9.640;2022-11-15T06:24:54;7.75;;;4.43;;
36829;SDS011;22767;47.328;9.640;2022-11-15T06:27:21;6.60;;;4.47;;
36829;SDS011;22767;47.328;9.640;2022-11-15T06:29:47;5.10;;;3.67;;
36829;SDS011;22767;47.328;9.640;2022-11-15T06:32:13;8.60;;;3.92;;
36829;SDS011;22767;47.328;9.640;2022-11-15T06:34:40;11.77;;;4.72;;
36829;SDS011;22767;47.328;9.640;2022-11-15T06:37:06;5.13;;;3.75;;
36829;SDS011;22767;47.328;9.640;2022-11-15T06:39:32;4.35;;;3.20;;
36829;SDS011;22767;47.328;9.640;2022-11-15T06:41:58;7.68;;;3.90;;
36829;SDS011;22767;47.328;9.640;2022-11-15T06:44:24;5.82;;;3.90;;
36829;SDS011;22767;47.328;9.640;2022-11-15T06:46:50;7.93;;;4.07;;
36829;SDS011;22767;47.328;9.640;2022-11-15T06:49:16;7.70;;;4.07;;
36829;SDS011;22767;47.328;9.640;2022-11-15T06:51:43;7.22;;;4.38;;
36829;SDS011;22767;47.328;9.640;2022-11-15T06:54:09;5.32;;;3.92;;
36829;SDS011;22767;47.328;9.640;2022-11-15T06:56:35;8.60;;;4.05;;
36829;SDS011;22767;47.328;9.640;2022-11-15T06:59:01;7.82;;;4.00;;
36829;SDS011;22767;47.328;9.640;2022-11-15T07:01:27;14.60;;;4.60;;
36829;SDS011;22767;47.328;9.640;2022-11-15T07:03:53;7.00;;;4.15;;
36829;SDS011;22767;47.328;9.640;2022-11-15T07:06:19;9.27;;;4.20;;
36829;SDS011;22767;47.328;9.640;2022-11-15T07:08:45;7.80;;;4.43;;
36829;SDS011;22767;47.328;9.640;2022-11-15T07:11:12;12.48;;;5.53;;
36829;SDS011;22767;47.328;9.640;2022-11-15T07:13:38;10.50;;;5.85;;
36829;SDS011;22767;47.328;9.640;2022-11-15T07:16:05;17.27;;;8.50;;
36829;SDS011;22767;47.328;9.640;2022-11-15T07:18:33;12.65;;;7.10;;
36829;SDS011;22767;47.328;9.640;2022-11-15T07:21:02;11.40;;;6.70;;
36829;SDS011;22767;47.328;9.640;2022-11-15T07:23:29;11.85;;;7.10;;
36829;SDS011;22767;47.328;9.640;2022-11-15T07:25:56;11.65;;;6.45;;
36829;SDS011;22767;47.328;9.640;2022-11-15T07:28:23;10.02;;;7.15;;
36829;SDS011;22767;47.328;9.640;2022-11-15T07:30:49;15.95;;;8.27;;
36829;SDS011;22767;47.328;9.640;2022-11-15T07:33:15;10.80;;;6.80;;
36829;SDS011;22767;47.328;9.640;2022-11-15T07:35:41;14.20;;;7.57;;
36829;SDS011;22767;47.328;9.640;2022-11-15T07:38:10;10.50;;;6.32;;
36829;SDS011;22767;47.328;9.640;2022-11-15T07:40:37;6.95;;;5.18;;
36829;SDS011;22767;47.328;9.640;2022-11-15T07:43:04;9.40;;;6.80;;
36829;SDS011;22767;47.328;9.640;2022-11-15T07:45:30;13.27;;;6.53;;
36829;SDS011;22767;47.328;9.640;2022-11-15T07:47:58;10.25;;;5.88;;
36829;SDS011;22767;47.328;9.640;2022-11-15T07:50:25;9.52;;;5.72;;
36829;SDS011;22767;47.328;9.640;2022-11-15T07:52:55;8.73;;;5.47;;
36829;SDS011;22767;47.328;9.640;2022-11-15T07:55:22;8.40;;;4.82;;
36829;SDS011;22767;47.328;9.640;2022-11-15T07:57:48;8.68;;;5.55;;
36829;SDS011;22767;47.328;9.640;2022-11-15T08:00:14;7.32;;;5.05;;
36829;SDS011;22767;47.328;9.640;2022-11-15T08:02:41;9.68;;;5.40;;
36829;SDS011;22767;47.328;9.640;2022-11-15T08:05:07;8.93;;;6.53;;
36829;SDS011;22767;47.328;9.640;2022-11-15T08:07:33;8.77;;;5.97;;
36829;SDS011;22767;47.328;9.640;2022-11-15T08:09:59;7.43;;;5.45;;
36829;SDS011;22767;47.328;9.640;2022-11-15T08:12:27;10.70;;;6.07;;
36829;SDS011;22767;47.328;9.640;2022-11-15T08:14:54;9.93;;;6.35;;
36829;SDS011;22767;47.328;9.640;2022-11-15T08:17:24;11.18;;;5.72;;
36829;SDS011;22767;47.328;9.640;2022-11-15T08:19:50;10.90;;;7.18;;
36829;SDS011;22767;47.328;9.640;2022-11-15T08:22:17;8.57;;;4.82;;
36829;SDS011;22767;47.328;9.640;2022-11-15T08:24:44;11.23;;;5.55;;
36829;SDS011;22767;47.328;9.640;2022-11-15T08:27:10;12.20;;;5.90;;
36829;SDS011;22767;47.328;9.640;2022-11-15T08:29:42;12.43;;;6.15;;
36829;SDS011;22767;47.328;9.640;2022-11-15T08:32:09;10.98;;;6.13;;
36829;SDS011;22767;47.328;9.640;2022-11-15T08:34:36;11.73;;;5.68;;
36829;SDS011;22767;47.328;9.640;2022-11-15T08:37:02;14.23;;;6.45;;
36829;SDS011;22767;47.328;9.640;2022-11-15T08:39:28;11.52;;;5.38;;
36829;SDS011;22767;47.328;9.640;2022-11-15T08:41:54;13.45;;;6.43;;
36829;SDS011;22767;47.328;9.640;2022-11-15T08:44:20;14.18;;;6.97;;
36829;SDS011;22767;47.328;9.640;2022-11-15T08:46:46;14.00;;;6.75;;
36829;SDS011;22767;47.328;9.640;2022-11-15T08:49:12;11.57;;;6.20;;
36829;SDS011;22767;47.328;9.640;2022-11-15T08:51:38;14.50;;;6.97;;
36829;SDS011;22767;47.328;9.640;2022-11-15T08:54:05;15.20;;;7.90;;
36829;SDS011;22767;47.328;9.640;2022-11-15T08:56:31;18.05;;;7.88;;
36829;SDS011;22767;47.328;9.640;2022-11-15T08:58:57;12.13;;;6.97;;
36829;SDS011;22767;47.328;9.640;2022-11-15T09:01:23;18.08;;;7.32;;
36829;SDS011;22767;47.328;9.640;2022-11-15T09:03:49;13.20;;;6.72;;
36829;SDS011;22767;47.328;9.640;2022-11-15T09:06:16;13.18;;;7.57;;
36829;SDS011;22767;47.328;9.640;2022-11-15T09:08:42;12.68;;;6.63;;
36829;SDS011;22767;47.328;9.640;2022-11-15T09:11:09;17.65;;;7.13;;
36829;SDS011;22767;47.328;9.640;2022-11-15T09:13:35;13.23;;;6.60;;
36829;SDS011;22767;47.328;9.640;2022-11-15T09:16:02;16.67;;;7.35;;
36829;SDS011;22767;47.328;9.640;2022-11-15T09:18:29;11.65;;;6.85;;
36829;SDS011;22767;47.328;9.640;2022-11-15T09:20:58;12.63;;;6.95;;
36829;SDS011;22767;47.328;9.640;2022-11-15T09:23:25;11.13;;;6.90;;
36829;SDS011;22767;47.328;9.640;2022-11-15T09:25:52;13.63;;;6.53;;
36829;SDS011;22767;47.328;9.640;2022-11-15T09:28:18;13.70;;;6.28;;
36829;SDS011;22767;47.328;9.640;2022-11-15T09:30:44;9.52;;;5.88;;
36829;SDS011;22767;47.328;9.640;2022-11-15T09:33:11;9.70;;;5.50;;
36829;SDS011;22767;47.328;9.640;2022-11-15T09:35:38;10.63;;;6.10;;
36829;SDS011;22767;47.328;9.640;2022-11-15T09:38:05;11.50;;;5.85;;
36829;SDS011;22767;47.328;9.640;2022-11-15T09:40:32;10.35;;;5.70;;
36829;SDS011;22767;47.328;9.640;2022-11-15T09:50:46;8.60;;;5.18;;
36829;SDS011;22767;47.328;9.640;2022-11-15T09:53:13;12.60;;;5.28;;
36829;SDS011;22767;47.328;9.640;2022-11-15T09:55:59;8.93;;;4.60;;
36829;SDS011;22767;47.328;9.640;2022-11-15T09:58:39;8.00;;;4.38;;
36829;SDS011;22767;47.328;9.640;2022-11-15T10:04:05;4.95;;;3.63;;
36829;SDS011;22767;47.328;9.640;2022-11-15T10:06:31;7.90;;;3.95;;
36829;SDS011;22767;47.328;9.640;2022-11-15T10:09:01;6.57;;;3.80;;
36829;SDS011;22767;47.328;9.640;2022-11-15T10:11:29;10.82;;;4.78;;
36829;SDS011;22767;47.328;9.640;2022-11-15T10:14:02;10.35;;;4.57;;
36829;SDS011;22767;47.328;9.640;2022-11-15T10:16:35;10.85;;;4.72;;
36829;SDS011;22767;47.328;9.640;2022-11-15T10:19:17;10.20;;;5.07;;
36829;SDS011;22767;47.328;9.640;2022-11-15T10:24:34;11.82;;;5.20;;
36829;SDS011;22767;47.328;9.640;2022-11-15T10:27:00;6.68;;;4.90;;
36829;SDS011;22767;47.328;9.640;2022-11-15T10:29:26;8.70;;;5.07;;
36829;SDS011;22767;47.328;9.640;2022-11-15T10:31:52;10.00;;;4.97;;
36829;SDS011;22767;47.328;9.640;2022-11-15T10:34:20;11.85;;;5.40;;
36829;SDS011;22767;47.328;9.640;2022-11-15T10:36:47;10.95;;;5.38;;
36829;SDS011;22767;47.328;9.640;2022-11-15T10:39:20;12.20;;;6.35;;
36829;SDS011;22767;47.328;9.640;2022-11-15T10:41:46;12.50;;;6.30;;
36829;SDS011;22767;47.328;9.640;2022-11-15T10:46:39;12.85;;;6.50;;
36829;SDS011;22767;47.328;9.640;2022-11-15T10:49:22;11.15;;;6.43;;
36829;SDS011;22767;47.328;9.640;2022-11-15T10:56:54;8.45;;;5.07;;
36829;SDS011;22767;47.328;9.640;2022-11-15T10:59:30;10.63;;;5.65;;
36829;SDS011;22767;47.328;9.640;2022-11-15T11:01:58;9.02;;;5.00;;
36829;SDS011;22767;47.328;9.640;2022-11-15T11:04:25;10.18;;;5.38;;
36829;SDS011;22767;47.328;9.640;2022-11-15T11:06:52;12.10;;;6.15;;
36829;SDS011;22767;47.328;9.640;2022-11-15T11:09:38;11.27;;;5.50;;
36829;SDS011;22767;47.328;9.640;2022-11-15T11:12:09;9.63;;;5.90;;
36829;SDS011;22767;47.328;9.640;2022-11-15T11:14:37;9.95;;;5.40;;
36829;SDS011;22767;47.328;9.640;2022-11-15T11:17:15;9.45;;;5.22;;
36829;SDS011;22767;47.328;9.640;2022-11-15T11:25:11;10.27;;;5.32;;
36829;SDS011;22767;47.328;9.640;2022-11-15T11:28:23;7.88;;;5.10;;
36829;SDS011;22767;47.328;9.640;2022-11-15T11:41:03;7.85;;;4.63;;
36829;SDS011;22767;47.328;9.640;2022-11-15T11:43:40;11.73;;;5.78;;
36829;SDS011;22767;47.328;9.640;2022-11-15T11:48:50;11.02;;;5.43;;
36829;SDS011;22767;47.328;9.640;2022-11-15T11:56:29;9.48;;;5.15;;
36829;SDS011;22767;47.328;9.640;2022-11-15T11:58:58;6.93;;;5.05;;
36829;SDS011;22767;47.328;9.640;2022-11-15T12:01:34;9.07;;;5.55;;
36829;SDS011;22767;47.328;9.640;2022-11-15T12:06:32;9.88;;;6.15;;
36829;SDS011;22767;47.328;9.640;2022-11-15T12:09:04;9.13;;;5.85;;
36829;SDS011;22767;47.328;9.640;2022-11-15T12:14:11;11.20;;;5.97;;
36829;SDS011;22767;47.328;9.640;2022-11-15T12:16:38;8.27;;;6.47;;
36829;SDS011;22767;47.328;9.640;2022-11-15T12:19:07;8.20;;;6.65;;
36829;SDS011;22767;47.328;9.640;2022-11-15T12:24:48;9.25;;;7.35;;
36829;SDS011;22767;47.328;9.640;2022-11-15T12:26:54;9.35;;;6.38;;
36829;SDS011;22767;47.328;9.640;2022-11-15T12:31:50;11.18;;;7.75;;
36829;SDS011;22767;47.328;9.640;2022-11-15T12:36:47;9.07;;;7.20;;
36829;SDS011;22767;47.328;9.640;2022-11-15T12:39:14;9.80;;;6.68;;
36829;SDS011;22767;47.328;9.640;2022-11-15T12:41:41;10.15;;;7.18;;
36829;SDS011;22767;47.328;9.640;2022-11-15T12:44:11;11.35;;;7.75;;
36829;SDS011;22767;47.328;9.640;2022-11-15T12:49:09;9.95;;;7.03;;
36829;SDS011;22767;47.328;9.640;2022-11-15T13:02:32;12.32;;;8.10;;
36829;SDS011;22767;47.328;9.640;2022-11-15T13:22:39;12.43;;;9.85;;
36829;SDS011;22767;47.328;9.640;2022-11-15T13:28:03;12.18;;;9.75;;
36829;SDS011;22767;47.328;9.640;2022-11-15T13:30:35;12.75;;;8.43;;
36829;SDS011;22767;47.328;9.640;2022-11-15T13:33:36;13.32;;;9.65;;
36829;SDS011;22767;47.328;9.640;2022-11-15T13:35:55;13.63;;;9.70;;
36829;SDS011;22767;47.328;9.640;2022-11-15T13:40:53;13.52;;;9.88;;
36829;SDS011;22767;47.328;9.640;2022-11-15T13:43:26;12.63;;;8.88;;
36829;SDS011;22767;47.328;9.640;2022-11-15T13:48:38;11.93;;;7.45;;
36829;SDS011;22767;47.328;9.640;2022-11-15T13:51:06;10.60;;;7.55;;
36829;SDS011;22767;47.328;9.640;2022-11-15T13:53:34;12.32;;;7.70;;
36829;SDS011;22767;47.328;9.640;2022-11-15T13:56:03;11.07;;;7.18;;
36829;SDS011;22767;47.328;9.640;2022-11-15T13:58:29;8.55;;;7.22;;
36829;SDS011;22767;47.328;9.640;2022-11-15T14:00:59;10.57;;;7.13;;
36829;SDS011;22767;47.328;9.640;2022-11-15T14:03:30;9.93;;;6.70;;
36829;SDS011;22767;47.328;9.640;2022-11-15T14:08:26;9.45;;;7.15;;
36829;SDS011;22767;47.328;9.640;2022-11-15T14:11:37;10.52;;;7.07;;
36829;SDS011;22767;47.328;9.640;2022-11-15T14:13:39;12.15;;;7.88;;
36829;SDS011;22767;47.328;9.640;2022-11-15T14:16:15;10.27;;;6.65;;
36829;SDS011;22767;47.328;9.640;2022-11-15T14:18:46;11.93;;;8.02;;
36829;SDS011;22767;47.328;9.640;2022-11-15T14:21:12;9.40;;;7.75;;
36829;SDS011;22767;47.328;9.640;2022-11-15T14:23:39;13.32;;;10.07;;
36829;SDS011;22767;47.328;9.640;2022-11-15T14:26:05;8.68;;;6.72;;
36829;SDS011;22767;47.328;9.640;2022-11-15T14:28:32;12.18;;;10.13;;
36829;SDS011;22767;47.328;9.640;2022-11-15T14:31:04;13.35;;;10.27;;
36829;SDS011;22767;47.328;9.640;2022-11-15T14:33:33;12.95;;;9.30;;
36829;SDS011;22767;47.328;9.640;2022-11-15T14:36:04;13.85;;;7.82;;
36829;SDS011;22767;47.328;9.640;2022-11-15T14:38:31;10.93;;;8.32;;
36829;SDS011;22767;47.328;9.640;2022-11-15T14:40:57;8.55;;;7.03;;
36829;SDS011;22767;47.328;9.640;2022-11-15T14:43:24;8.57;;;6.55;;
36829;SDS011;22767;47.328;9.640;2022-11-15T14:45:50;10.88;;;8.15;;
36829;SDS011;22767;47.328;9.640;2022-11-15T14:48:16;9.95;;;7.15;;
36829;SDS011;22767;47.328;9.640;2022-11-15T14:50:42;11.80;;;8.93;;
36829;SDS011;22767;47.328;9.640;2022-11-15T14:53:13;13.77;;;8.30;;
36829;SDS011;22767;47.328;9.640;2022-11-15T14:55:40;11.50;;;7.05;;
36829;SDS011;22767;47.328;9.640;2022-11-15T14:58:07;12.25;;;8.27;;
36829;SDS011;22767;47.328;9.640;2022-11-15T15:00:33;13.00;;;8.68;;
36829;SDS011;22767;47.328;9.640;2022-11-15T15:03:00;12.30;;;8.15;;
36829;SDS011;22767;47.328;9.640;2022-11-15T15:05:37;9.55;;;8.55;;
36829;SDS011;22767;47.328;9.640;2022-11-15T15:08:04;11.93;;;7.93;;
36829;SDS011;22767;47.328;9.640;2022-11-15T15:10:31;12.20;;;8.85;;
36829;SDS011;22767;47.328;9.640;2022-11-15T15:12:58;16.15;;;8.85;;
36829;SDS011;22767;47.328;9.640;2022-11-15T15:15:24;10.32;;;8.77;;
36829;SDS011;22767;47.328;9.640;2022-11-15T15:17:51;12.30;;;9.80;;
36829;SDS011;22767;47.328;9.640;2022-11-15T15:20:17;11.07;;;8.90;;
36829;SDS011;22767;47.328;9.640;2022-11-15T15:22:43;15.88;;;10.40;;
36829;SDS011;22767;47.328;9.640;2022-11-15T15:27:54;13.35;;;9.23;;
36829;SDS011;22767;47.328;9.640;2022-11-15T15:30:21;12.85;;;8.63;;
36829;SDS011;22767;47.328;9.640;2022-11-15T15:32:48;12.15;;;8.50;;
36829;SDS011;22767;47.328;9.640;2022-11-15T15:35:14;11.82;;;8.68;;
36829;SDS011;22767;47.328;9.640;2022-11-15T15:37:41;12.40;;;8.05;;
36829;SDS011;22767;47.328;9.640;2022-11-15T15:40:10;10.23;;;7.50;;
36829;SDS011;22767;47.328;9.640;2022-11-15T15:42:37;11.77;;;7.55;;
36829;SDS011;22767;47.328;9.640;2022-11-15T15:45:03;10.88;;;7.75;;
36829;SDS011;22767;47.328;9.640;2022-11-15T15:47:30;14.20;;;8.32;;
36829;SDS011;22767;47.328;9.640;2022-11-15T15:49:56;13.25;;;8.13;;
36829;SDS011;22767;47.328;9.640;2022-11-15T15:52:22;10.95;;;7.03;;
36829;SDS011;22767;47.328;9.640;2022-11-15T15:54:50;10.93;;;7.63;;
36829;SDS011;22767;47.328;9.640;2022-11-15T15:57:16;16.92;;;9.38;;
36829;SDS011;22767;47.328;9.640;2022-11-15T15:59:43;14.70;;;9.13;;
36829;SDS011;22767;47.328;9.640;2022-11-15T16:02:12;18.00;;;10.07;;
36829;SDS011;22767;47.328;9.640;2022-11-15T16:04:39;16.25;;;9.95;;
36829;SDS011;22767;47.328;9.640;2022-11-15T16:07:05;12.77;;;7.57;;
36829;SDS011;22767;47.328;9.640;2022-11-15T16:09:31;15.55;;;10.05;;
36829;SDS011;22767;47.328;9.640;2022-11-15T16:12:16;10.70;;;6.93;;
36829;SDS011;22767;47.328;9.640;2022-11-15T16:14:42;11.75;;;6.30;;
36829;SDS011;22767;47.328;9.640;2022-11-15T16:17:18;12.18;;;8.32;;
36829;SDS011;22767;47.328;9.640;2022-11-15T16:19:44;9.95;;;7.22;;
36829;SDS011;22767;47.328;9.640;2022-11-15T16:22:10;14.70;;;9.38;;
36829;SDS011;22767;47.328;9.640;2022-11-15T16:24:37;16.38;;;11.05;;
36829;SDS011;22767;47.328;9.640;2022-11-15T16:27:03;13.32;;;9.68;;
36829;SDS011;22767;47.328;9.640;2022-11-15T16:29:29;11.90;;;9.27;;
36829;SDS011;22767;47.328;9.640;2022-11-15T16:31:55;11.95;;;8.68;;
36829;SDS011;22767;47.328;9.640;2022-11-15T16:34:22;13.65;;;9.60;;
36829;SDS011;22767;47.328;9.640;2022-11-15T16:36:49;19.58;;;12.45;;
36829;SDS011;22767;47.328;9.640;2022-11-15T16:39:16;16.67;;;11.55;;
36829;SDS011;22767;47.328;9.640;2022-11-15T16:41:43;17.05;;;11.73;;
36829;SDS011;22767;47.328;9.640;2022-11-15T16:44:12;18.45;;;10.30;;
36829;SDS011;22767;47.328;9.640;2022-11-15T16:46:40;16.48;;;9.75;;
36829;SDS011;22767;47.328;9.640;2022-11-15T16:49:15;13.90;;;9.75;;
36829;SDS011;22767;47.328;9.640;2022-11-15T16:51:41;14.45;;;8.82;;
36829;SDS011;22767;47.328;9.640;2022-11-15T16:54:09;13.57;;;8.80;;
36829;SDS011;22767;47.328;9.640;2022-11-15T16:56:37;12.65;;;9.05;;
36829;SDS011;22767;47.328;9.640;2022-11-15T16:59:03;14.10;;;8.82;;
36829;SDS011;22767;47.328;9.640;2022-11-15T17:01:30;15.82;;;9.35;;
36829;SDS011;22767;47.328;9.640;2022-11-15T17:03:57;13.35;;;8.27;;